createdAt,value
2022-10-18T04:03:35.124Z,5.13
2022-10-18T04:07:46.676Z,5.32
2022-10-18T04:11:58.210Z,5.70
2022-10-18T04:16:09.713Z,5.32
2022-10-18T04:20:21.242Z,5.68
2022-10-18T04:24:33.030Z,5.70
2022-10-18T04:28:45.144Z,4.90
2022-10-18T04:32:56.716Z,5.40
2022-10-18T04:37:08.310Z,4.95
2022-10-18T04:41:19.840Z,5.32
2022-10-18T04:45:31.375Z,4.80
2022-10-18T04:49:42.920Z,5.68
2022-10-18T04:53:54.907Z,5.03
2022-10-18T04:58:06.428Z,5.13
2022-10-18T05:02:17.978Z,5.15
2022-10-18T05:06:29.557Z,4.80
2022-10-18T05:10:41.100Z,5.05
2022-10-18T05:14:52.618Z,4.95
2022-10-18T05:19:05.660Z,5.07
2022-10-18T05:23:17.208Z,5.07
2022-10-18T05:27:29.200Z,5.50
2022-10-18T05:31:40.705Z,5.70
2022-10-18T05:35:52.198Z,5.80
2022-10-18T05:40:04.311Z,6.45
2022-10-18T05:44:15.895Z,5.18
2022-10-18T05:48:27.542Z,6.18
2022-10-18T05:52:39.054Z,5.82
2022-10-18T05:56:50.608Z,5.93
2022-10-18T06:01:03.122Z,5.70
2022-10-18T06:05:14.648Z,5.30
2022-10-18T06:09:26.321Z,6.15
2022-10-18T06:13:45.980Z,6.03
2022-10-18T06:17:59.021Z,5.68
2022-10-18T06:22:11.505Z,5.78
2022-10-18T06:26:23.398Z,6.28
2022-10-18T06:30:35.141Z,7.10
2022-10-18T06:34:46.637Z,7.53
2022-10-18T06:38:59.904Z,6.25
2022-10-18T06:43:20.652Z,7.40
2022-10-18T06:47:33.012Z,7.53
2022-10-18T06:51:44.659Z,6.57
2022-10-18T06:56:14.324Z,5.70
2022-10-18T07:00:25.995Z,6.82
2022-10-18T07:04:37.593Z,7.07
2022-10-18T07:08:50.265Z,7.68
2022-10-18T07:13:30.482Z,7.30
2022-10-18T07:17:33.481Z,7.13
2022-10-18T07:21:45.157Z,7.40
2022-10-18T07:25:56.708Z,7.28
2022-10-18T07:30:10.036Z,7.35
2022-10-18T07:34:21.539Z,6.93
2022-10-18T07:38:33.318Z,6.85
2022-10-18T07:42:44.818Z,7.25
2022-10-18T07:46:56.296Z,7.28
2022-10-18T07:51:08.874Z,7.57
2022-10-18T07:55:20.772Z,8.20
2022-10-18T07:59:32.468Z,7.38
2022-10-18T08:03:44.191Z,6.35
2022-10-18T08:07:56.212Z,7.50
2022-10-18T08:12:07.733Z,7.82
2022-10-18T08:16:27.656Z,8.23
2022-10-18T08:20:44.240Z,8.45
2022-10-18T08:24:55.763Z,7.70
2022-10-18T08:29:21.875Z,7.95
2022-10-18T08:33:36.250Z,7.75
2022-10-18T08:37:48.485Z,7.90
2022-10-18T08:42:12.199Z,6.93
2022-10-18T08:46:24.531Z,7.15
2022-10-18T08:50:37.763Z,8.13
2022-10-18T08:55:00.053Z,7.28
2022-10-18T08:59:12.900Z,7.35
2022-10-18T09:03:56.733Z,6.65
2022-10-18T09:08:41.579Z,5.50
2022-10-18T09:13:02.223Z,4.97
2022-10-18T09:17:54.152Z,5.15
2022-10-18T09:22:13.920Z,3.63
2022-10-18T09:26:25.984Z,3.78
2022-10-18T09:30:37.454Z,3.20
2022-10-18T09:34:59.648Z,2.40
2022-10-18T09:39:14.410Z,2.58
2022-10-18T09:43:42.252Z,2.55
2022-10-18T09:48:05.526Z,2.70
2022-10-18T09:52:28.227Z,2.30
2022-10-18T09:56:52.227Z,2.50
2022-10-18T10:01:04.038Z,2.03
2022-10-18T10:05:15.766Z,2.05
2022-10-18T10:09:36.051Z,2.20
2022-10-18T10:13:48.444Z,1.80
2022-10-18T10:18:06.079Z,2.30
2022-10-18T10:22:35.157Z,1.83
2022-10-18T10:26:47.259Z,2.17
2022-10-18T10:31:29.356Z,2.08
2022-10-18T10:35:53.047Z,2.28
2022-10-18T10:40:24.073Z,2.40
2022-10-18T10:44:36.975Z,2.30
2022-10-18T10:49:21.669Z,2.20
2022-10-18T10:53:50.640Z,2.17
2022-10-18T10:58:02.363Z,2.25
2022-10-18T11:02:13.958Z,2.20
2022-10-18T11:06:33.789Z,2.00
2022-10-18T11:10:57.307Z,2.00
2022-10-18T11:15:12.007Z,1.75
2022-10-18T11:19:39.159Z,2.00
2022-10-18T11:23:51.304Z,2.03
2022-10-18T11:28:11.361Z,1.80
2022-10-18T11:32:38.164Z,2.00
2022-10-18T11:37:29.078Z,2.33
2022-10-18T11:41:53.915Z,2.17
2022-10-18T11:46:24.002Z,1.98
2022-10-18T11:50:50.611Z,1.75
2022-10-18T11:55:10.906Z,1.58
2022-10-18T11:59:32.450Z,2.08
2022-10-18T12:04:18.049Z,1.35
2022-10-18T12:08:39.928Z,1.67
2022-10-18T12:13:02.040Z,1.42
2022-10-18T12:17:47.467Z,1.70
2022-10-18T12:22:27.963Z,1.50
2022-10-18T12:26:40.136Z,1.58
2022-10-18T12:31:02.284Z,1.73
2022-10-18T12:35:19.161Z,1.50
2022-10-18T12:39:43.835Z,1.83
2022-10-18T12:44:16.769Z,1.70
2022-10-18T12:48:43.187Z,1.70
2022-10-18T12:53:09.868Z,1.98
2022-10-18T12:57:24.347Z,1.88
2022-10-18T13:01:51.145Z,1.70
2022-10-18T13:06:06.652Z,1.80
2022-10-18T13:10:18.352Z,1.80
2022-10-18T13:14:44.132Z,1.60
2022-10-18T13:19:23.286Z,1.80
2022-10-18T13:24:28.578Z,2.13
2022-10-18T13:28:51.041Z,1.48
2022-10-18T13:33:31.361Z,1.60
2022-10-18T13:37:42.862Z,1.48
2022-10-18T13:41:57.743Z,1.40
2022-10-18T13:46:09.584Z,1.38
2022-10-18T13:50:34.128Z,1.23
2022-10-18T13:55:22.484Z,1.10
2022-10-18T14:00:11.542Z,0.90
2022-10-18T14:04:42.348Z,1.23
2022-10-18T14:09:03.355Z,1.10
2022-10-18T14:13:26.480Z,1.30
2022-10-18T14:17:46.823Z,2.00
2022-10-18T14:22:09.365Z,2.40
2022-10-18T14:26:21.002Z,2.97
2022-10-18T14:30:32.494Z,3.30
2022-10-18T14:34:44.435Z,2.80
2022-10-18T14:39:04.747Z,3.03
2022-10-18T14:43:19.860Z,2.67
2022-10-18T14:47:33.684Z,1.85
2022-10-18T14:51:49.879Z,2.35
2022-10-18T14:56:05.744Z,1.88
2022-10-18T15:00:25.721Z,2.38
2022-10-18T15:04:37.259Z,2.63
2022-10-18T15:08:54.124Z,1.90
2022-10-18T15:13:10.310Z,2.00
2022-10-18T15:17:28.418Z,0.93
2022-10-18T15:21:59.151Z,0.90
2022-10-18T15:26:24.433Z,0.95
2022-10-18T15:30:35.882Z,0.60
2022-10-18T15:34:47.486Z,0.60
2022-10-18T15:39:17.639Z,0.32
2022-10-18T15:43:29.064Z,0.57
2022-10-18T15:47:56.243Z,0.50
2022-10-18T15:52:07.745Z,0.77
2022-10-18T15:56:32.723Z,0.80
2022-10-18T16:00:45.680Z,0.50
2022-10-18T16:04:59.887Z,0.80
2022-10-18T16:09:22.789Z,0.70
2022-10-18T16:13:34.850Z,1.00
2022-10-18T16:17:47.773Z,1.00
2022-10-18T16:22:06.090Z,1.13
2022-10-18T16:26:19.741Z,3.15
2022-10-18T16:30:34.110Z,4.80
2022-10-18T16:34:45.636Z,2.20
2022-10-18T16:38:58.895Z,4.05
2022-10-18T16:43:10.676Z,4.63
2022-10-18T16:47:22.203Z,3.83
2022-10-18T16:51:33.756Z,5.70
2022-10-18T16:55:45.507Z,3.95
2022-10-18T16:59:57.298Z,3.20
2022-10-18T17:04:08.839Z,2.63
2022-10-18T17:08:23.617Z,2.42
2022-10-18T17:12:35.305Z,6.80
2022-10-18T17:16:50.758Z,3.35
2022-10-18T17:21:06.187Z,2.97
2022-10-18T17:25:18.927Z,1.92
2022-10-18T17:29:30.455Z,2.20
2022-10-18T17:33:42.226Z,2.38
2022-10-18T17:37:53.762Z,2.40
2022-10-18T17:42:05.259Z,2.33
2022-10-18T17:46:17.783Z,2.08
2022-10-18T17:50:29.379Z,1.50
2022-10-18T17:54:40.919Z,1.40
2022-10-18T17:58:52.807Z,1.60
2022-10-18T18:03:04.354Z,2.65
2022-10-18T18:07:15.865Z,2.63
2022-10-18T18:11:28.749Z,6.95
2022-10-18T18:15:40.256Z,8.57
2022-10-18T18:19:51.794Z,9.50
2022-10-18T18:24:03.480Z,4.45
2022-10-18T18:28:15.539Z,3.97
2022-10-18T18:32:27.071Z,4.22
2022-10-18T18:36:39.167Z,3.92
2022-10-18T18:40:50.855Z,5.63
2022-10-18T18:45:02.572Z,5.20
2022-10-18T18:49:14.236Z,4.50
2022-10-18T18:53:28.689Z,5.55
2022-10-18T18:57:41.475Z,5.82
2022-10-18T19:01:53.105Z,5.95
2022-10-18T19:06:06.817Z,4.28
2022-10-18T19:10:18.327Z,5.38
2022-10-18T19:14:29.845Z,6.80
2022-10-18T19:18:41.334Z,6.85
2022-10-18T19:22:53.560Z,5.47
2022-10-18T19:27:12.569Z,4.93
2022-10-18T19:31:24.304Z,4.53
2022-10-18T19:35:35.839Z,5.18
2022-10-18T19:39:47.323Z,5.40
2022-10-18T19:43:58.842Z,5.25
2022-10-18T19:48:13.325Z,6.78
2022-10-18T19:52:25.097Z,7.28
2022-10-18T19:56:36.616Z,7.85
2022-10-18T20:00:52.806Z,8.23
2022-10-18T20:05:04.721Z,7.20
2022-10-18T20:09:19.575Z,6.90
2022-10-18T20:13:32.866Z,6.75
2022-10-18T20:17:44.455Z,6.95
2022-10-18T20:21:57.590Z,7.82
2022-10-18T20:26:18.018Z,8.30
2022-10-18T20:30:31.478Z,9.00
2022-10-18T20:34:42.963Z,7.70
2022-10-18T20:38:54.986Z,7.38
2022-10-18T20:43:06.583Z,7.22
2022-10-18T20:47:18.111Z,6.78
2022-10-18T20:51:29.703Z,6.88
2022-10-18T20:55:42.696Z,6.00
2022-10-18T20:59:54.216Z,6.47
2022-10-18T21:04:08.870Z,6.88
2022-10-18T21:08:20.359Z,5.78
2022-10-18T21:12:32.155Z,5.53
2022-10-18T21:16:44.121Z,5.57
2022-10-18T21:20:55.871Z,4.85
2022-10-18T21:25:08.022Z,5.60
2022-10-18T21:29:22.176Z,4.72
